createdAt,value
2023-11-19T00:02:08.076Z,7.7
2023-11-19T00:05:08.069Z,7.7
2023-11-19T00:08:08.023Z,7.7
2023-11-19T00:11:08.018Z,7.7
2023-11-19T00:14:08.018Z,7.7
2023-11-19T00:17:08.023Z,7.8
2023-11-19T00:20:08.020Z,7.8
2023-11-19T00:23:08.021Z,7.8
2023-11-19T00:26:08.023Z,7.8
2023-11-19T00:29:08.009Z,7.8
2023-11-19T00:32:08.074Z,7.8
2023-11-19T00:35:08.016Z,7.8
2023-11-19T00:38:08.018Z,7.8
2023-11-19T00:41:08.014Z,7.8
2023-11-19T00:44:08.014Z,7.8
2023-11-19T00:47:08.030Z,7.9
2023-11-19T00:50:08.014Z,7.9
2023-11-19T00:53:08.000Z,7.9
2023-11-19T00:56:08.003Z,7.9
2023-11-19T00:59:08.018Z,7.9
2023-11-19T01:02:08.053Z,7.9
2023-11-19T01:05:08.016Z,7.9
2023-11-19T01:08:08.014Z,7.9
2023-11-19T01:11:08.027Z,7.9
2023-11-19T01:14:08.014Z,7.9
2023-11-19T01:17:08.073Z,7.9
2023-11-19T01:20:08.043Z,7.9
2023-11-19T01:23:07.998Z,8
2023-11-19T01:26:08.029Z,8
2023-11-19T01:29:08.016Z,8
2023-11-19T01:32:08.007Z,8
2023-11-19T01:35:08.046Z,8
2023-11-19T01:38:08.012Z,8
2023-11-19T01:41:08.008Z,8
2023-11-19T01:44:07.999Z,8
2023-11-19T01:47:08.000Z,8
2023-11-19T01:50:08.325Z,8
2023-11-19T01:53:07.995Z,8.1
2023-11-19T01:56:08.002Z,8.1
2023-11-19T01:59:07.992Z,8.1
2023-11-19T02:02:08.127Z,8.1
2023-11-19T02:05:08.056Z,8.1
2023-11-19T02:08:08.029Z,8.1
2023-11-19T02:11:08.038Z,8.1
2023-11-19T02:14:08.050Z,8.1
2023-11-19T02:17:08.033Z,8.1
2023-11-19T02:20:08.038Z,8.1
2023-11-19T02:23:08.017Z,8.1
2023-11-19T02:26:08.018Z,8.2
2023-11-19T02:29:08.846Z,8.2
2023-11-19T02:32:08.122Z,8.2
2023-11-19T02:35:08.313Z,8.2
2023-11-19T02:38:08.010Z,8.2
2023-11-19T02:41:08.098Z,8.2
2023-11-19T02:44:08.057Z,8.2
2023-11-19T02:47:08.010Z,8.2
2023-11-19T02:50:08.115Z,8.2
2023-11-19T02:53:08.024Z,8.2
2023-11-19T02:56:08.003Z,8.3
2023-11-19T02:59:08.017Z,8.3
2023-11-19T03:02:08.147Z,8.3
2023-11-19T03:05:08.000Z,8.3
2023-11-19T03:08:08.006Z,8.3
2023-11-19T03:14:08.015Z,8.3
2023-11-19T03:17:08.079Z,8.3
2023-11-19T03:20:08.001Z,8.4
2023-11-19T03:23:07.992Z,8.4
2023-11-19T03:26:07.988Z,8.4
2023-11-19T03:29:07.995Z,8.4
2023-11-19T03:32:07.996Z,8.4
2023-11-19T03:35:08.000Z,8.5
2023-11-19T03:38:07.993Z,8.5
2023-11-19T03:41:07.987Z,8.5
2023-11-19T03:44:08.024Z,8.5
2023-11-19T03:47:08.022Z,8.5
2023-11-19T03:50:08.077Z,8.5
2023-11-19T03:53:07.988Z,8.6
2023-11-19T03:56:07.986Z,8.6
2023-11-19T03:59:07.987Z,8.6
2023-11-19T04:02:07.992Z,8.6
2023-11-19T04:05:07.986Z,8.6
2023-11-19T04:08:07.980Z,8.6
2023-11-19T04:11:07.982Z,8.6
2023-11-19T04:14:07.980Z,8.7
2023-11-19T04:17:07.987Z,8.7
2023-11-19T04:20:08.013Z,8.7
2023-11-19T04:23:08.015Z,8.7
2023-11-19T04:29:07.974Z,8.7
2023-11-19T04:32:07.972Z,8.7
2023-11-19T04:35:07.998Z,8.7
2023-11-19T04:38:07.970Z,8.7
2023-11-19T04:41:07.971Z,8.8
2023-11-19T04:44:07.961Z,8.8
2023-11-19T04:47:08.031Z,8.8
2023-11-19T04:50:07.969Z,8.8
2023-11-19T04:53:07.968Z,8.8
2023-11-19T04:56:07.960Z,8.8
2023-11-19T04:59:08.002Z,8.8
2023-11-19T05:02:07.967Z,8.9
2023-11-19T05:05:08.030Z,8.9
2023-11-19T05:08:07.959Z,8.9
2023-11-19T05:11:07.958Z,8.9
2023-11-19T05:14:07.950Z,8.9
2023-11-19T05:17:07.990Z,8.9
2023-11-19T05:20:07.952Z,9
2023-11-19T05:23:20.997Z,9
2023-11-19T05:26:08.593Z,9
2023-11-19T05:29:07.949Z,9
2023-11-19T05:32:07.980Z,9
2023-11-19T05:35:07.950Z,9
2023-11-19T05:38:07.941Z,9
2023-11-19T05:41:07.951Z,9
2023-11-19T05:44:07.940Z,9
2023-11-19T05:47:08.044Z,9.1
2023-11-19T05:50:07.957Z,9.1
2023-11-19T05:53:07.940Z,9.1
2023-11-19T05:59:07.948Z,9.1
2023-11-19T06:02:07.968Z,9.1
2023-11-19T06:05:07.962Z,9.1
2023-11-19T06:08:07.926Z,9.1
2023-11-19T06:11:07.926Z,9.2
2023-11-19T06:14:07.921Z,9.2
2023-11-19T06:17:07.998Z,9.2
2023-11-19T06:20:08.029Z,9.2
2023-11-19T06:23:07.956Z,9.2
2023-11-19T06:26:07.921Z,9.3
2023-11-19T06:29:07.920Z,9.3
2023-11-19T06:35:07.938Z,9.3
2023-11-19T06:38:07.968Z,9.3
2023-11-19T06:41:07.933Z,9.3
2023-11-19T06:44:07.925Z,9.3
2023-11-19T06:47:07.977Z,9.3
2023-11-19T06:50:07.920Z,9.4
2023-11-19T06:53:07.912Z,9.4
2023-11-19T06:56:07.913Z,9.4
2023-11-19T06:59:07.931Z,9.4
2023-11-19T07:02:07.966Z,9.4
2023-11-19T07:05:07.957Z,9.4
2023-11-19T07:08:08.326Z,9.5
2023-11-19T07:11:08.062Z,9.5
2023-11-19T07:14:08.127Z,9.5
2023-11-19T07:17:08.100Z,9.5
2023-11-19T07:20:08.041Z,9.5
2023-11-19T07:23:08.115Z,9.6
2023-11-19T07:26:08.085Z,9.6
2023-11-19T07:29:08.096Z,9.6
2023-11-19T07:32:08.107Z,9.6
2023-11-19T07:35:08.083Z,9.7
2023-11-19T07:38:08.150Z,9.7
2023-11-19T07:41:08.069Z,9.7
2023-11-19T07:44:08.100Z,9.8
2023-11-19T07:47:08.053Z,9.8
2023-11-19T07:50:08.082Z,9.8
2023-11-19T07:53:08.109Z,9.8
2023-11-19T07:56:08.069Z,9.8
2023-11-19T07:59:08.083Z,9.9
2023-11-19T08:02:08.081Z,9.9
2023-11-19T08:05:08.139Z,9.9
2023-11-19T08:08:08.105Z,9.9
2023-11-19T08:11:08.057Z,9.9
2023-11-19T08:14:08.074Z,10
2023-11-19T08:20:08.066Z,10.1
2023-11-19T08:23:08.062Z,10.1
2023-11-19T08:26:08.083Z,10.2
2023-11-19T08:29:08.034Z,10.2
2023-11-19T08:32:08.126Z,10.2
2023-11-19T08:35:08.042Z,10.3
2023-11-19T08:38:08.140Z,10.3
2023-11-19T08:41:08.108Z,10.3
2023-11-19T08:44:08.043Z,10.3
2023-11-19T08:47:08.022Z,10.3
2023-11-19T08:50:08.093Z,10.3
2023-11-19T08:53:08.162Z,10.3
2023-11-19T08:56:08.058Z,10.4
2023-11-19T08:59:08.052Z,10.4
2023-11-19T09:02:08.041Z,10.4
2023-11-19T09:05:08.063Z,10.4
2023-11-19T09:08:08.053Z,10.4
2023-11-19T09:11:08.081Z,10.4
2023-11-19T09:14:08.159Z,10.4
2023-11-19T09:17:08.035Z,10.4
2023-11-19T09:20:08.397Z,10.3
2023-11-19T09:23:08.216Z,10.3
2023-11-19T09:26:08.115Z,10.3
2023-11-19T09:29:08.113Z,10.3
2023-11-19T09:32:08.202Z,10.3
2023-11-19T09:35:08.229Z,10.3
2023-11-19T09:38:08.088Z,10.3
2023-11-19T09:41:08.183Z,10.4
2023-11-19T09:44:08.110Z,10.4
2023-11-19T09:47:08.092Z,10.5
2023-11-19T09:50:08.105Z,10.5
2023-11-19T09:53:08.111Z,10.5
2023-11-19T09:56:08.109Z,10.6
2023-11-19T09:59:08.105Z,10.6
2023-11-19T10:02:08.844Z,10.6
2023-11-19T10:05:08.110Z,10.6
2023-11-19T10:08:08.074Z,10.7
2023-11-19T10:11:08.110Z,10.7
2023-11-19T10:14:08.093Z,10.8
2023-11-19T10:17:08.063Z,10.8
2023-11-19T10:20:08.083Z,10.8
2023-11-19T10:23:08.069Z,10.9
2023-11-19T10:29:08.065Z,11
2023-11-19T10:35:08.071Z,11.1
2023-11-19T10:38:08.055Z,11.1
2023-11-19T10:41:08.063Z,11.1
2023-11-19T10:44:08.080Z,11.2
2023-11-19T10:47:08.166Z,11.2
2023-11-19T10:50:08.076Z,11.3
2023-11-19T10:53:08.070Z,11.4
2023-11-19T10:56:08.078Z,11.4
2023-11-19T10:59:22.625Z,11.5
2023-11-19T11:02:08.056Z,11.6
2023-11-19T11:05:08.069Z,11.7
2023-11-19T11:08:08.062Z,11.7
2023-11-19T11:11:08.063Z,11.7
2023-11-19T11:14:08.051Z,11.8
2023-11-19T11:17:08.086Z,11.9
2023-11-19T11:20:08.044Z,11.9
2023-11-19T11:23:08.052Z,11.9
2023-11-19T11:26:08.045Z,11.9
2023-11-19T11:29:08.055Z,11.9
2023-11-19T11:32:08.042Z,11.9
2023-11-19T11:35:08.059Z,11.8
2023-11-19T11:38:08.068Z,11.8
2023-11-19T11:41:08.048Z,11.8
2023-11-19T11:44:08.120Z,11.9
2023-11-19T11:47:08.055Z,11.9
2023-11-19T11:50:08.031Z,11.9
2023-11-19T11:53:08.150Z,11.9
2023-11-19T11:56:08.061Z,11.9
2023-11-19T11:59:08.039Z,11.9
2023-11-19T12:02:08.061Z,11.9
2023-11-19T12:05:08.097Z,11.9
2023-11-19T12:08:08.036Z,11.9
2023-11-19T12:11:08.035Z,11.9
2023-11-19T12:14:08.066Z,11.8
2023-11-19T12:17:09.096Z,11.8
2023-11-19T12:20:08.031Z,11.8
2023-11-19T12:23:08.059Z,11.7
2023-11-19T12:29:08.700Z,11.7
2023-11-19T12:35:08.062Z,11.8
2023-11-19T12:38:08.043Z,11.9
2023-11-19T12:41:08.031Z,11.9
2023-11-19T12:44:08.027Z,11.9
2023-11-19T12:47:08.460Z,11.9
2023-11-19T12:50:08.014Z,11.9
2023-11-19T12:53:08.088Z,12
2023-11-19T12:56:08.026Z,12
2023-11-19T12:59:08.049Z,12
2023-11-19T13:02:08.242Z,12
2023-11-19T13:05:08.023Z,12.1
2023-11-19T13:08:08.062Z,12.1
2023-11-19T13:11:08.020Z,12.2
2023-11-19T13:17:08.135Z,12.2
2023-11-19T13:20:08.057Z,12.2
2023-11-19T13:23:08.063Z,12.2
2023-11-19T13:26:08.042Z,12.2
2023-11-19T13:29:08.004Z,12.2
2023-11-19T13:32:08.018Z,12.1
2023-11-19T13:38:08.025Z,12.1
2023-11-19T13:41:08.032Z,12.1
2023-11-19T13:44:08.038Z,12.1
2023-11-19T13:47:08.036Z,12.1
2023-11-19T13:50:08.007Z,12.1
2023-11-19T13:53:07.996Z,12.1
2023-11-19T13:56:08.032Z,12.1
2023-11-19T13:59:08.004Z,12
2023-11-19T14:02:08.004Z,12
2023-11-19T14:05:08.021Z,12
2023-11-19T14:08:11.248Z,12
2023-11-19T14:11:08.028Z,11.9
2023-11-19T14:14:08.049Z,11.9
2023-11-19T14:20:08.004Z,11.9
2023-11-19T14:23:07.988Z,11.9
2023-11-19T14:26:08.024Z,11.9
2023-11-19T14:29:07.989Z,11.9
2023-11-19T14:32:08.048Z,11.9
2023-11-19T14:35:08.016Z,11.9
2023-11-19T14:38:07.986Z,11.9
2023-11-19T14:41:07.982Z,11.8
2023-11-19T14:44:08.008Z,11.8
2023-11-19T14:47:08.007Z,11.8
2023-11-19T14:50:08.080Z,11.7
2023-11-19T14:53:07.986Z,11.7
2023-11-19T14:56:08.007Z,11.6
2023-11-19T14:59:07.974Z,11.6
2023-11-19T15:02:08.017Z,11.5
2023-11-19T15:05:08.007Z,11.5
2023-11-19T15:08:07.992Z,11.5
2023-11-19T15:11:07.977Z,11.5
2023-11-19T15:14:08.005Z,11.5
2023-11-19T15:17:08.028Z,11.5
2023-11-19T15:20:08.116Z,11.5
2023-11-19T15:23:09.459Z,11.5
2023-11-19T15:26:08.021Z,11.5
2023-11-19T15:29:08.029Z,11.5
2023-11-19T15:32:07.994Z,11.4
2023-11-19T15:35:08.005Z,11.4
2023-11-19T15:38:08.006Z,11.4
2023-11-19T15:41:13.218Z,11.4
2023-11-19T15:44:08.709Z,11.3
2023-11-19T15:47:09.340Z,11.3
2023-11-19T15:50:08.742Z,11.3
2023-11-19T15:53:09.313Z,11.3
2023-11-19T15:56:08.696Z,11.3
2023-11-19T15:59:08.697Z,11.3
2023-11-19T16:02:08.842Z,11.3
2023-11-19T16:05:08.917Z,11.3
2023-11-19T16:08:08.720Z,11.2
2023-11-19T16:11:08.725Z,11.2
2023-11-19T16:14:08.751Z,11.2
2023-11-19T16:17:08.739Z,11.2
2023-11-19T16:20:08.749Z,11.3
2023-11-19T16:23:08.771Z,11.3
2023-11-19T16:26:08.749Z,11.3
2023-11-19T16:29:08.738Z,11.3
2023-11-19T16:32:08.720Z,11.2
2023-11-19T16:35:08.800Z,11.2
2023-11-19T16:38:08.737Z,11.2
2023-11-19T16:41:08.718Z,11.2
2023-11-19T16:44:08.828Z,11.2
2023-11-19T16:47:08.789Z,11.2
2023-11-19T16:50:08.730Z,11.2
2023-11-19T16:53:08.768Z,11.2
2023-11-19T16:56:08.759Z,11.2
2023-11-19T16:59:08.814Z,11.2
2023-11-19T17:02:08.774Z,11.2
2023-11-19T17:05:08.753Z,11.2
2023-11-19T17:08:08.765Z,11.3
2023-11-19T17:11:08.776Z,11.3
2023-11-19T17:14:08.755Z,11.3
2023-11-19T17:17:08.752Z,11.3
2023-11-19T17:20:08.788Z,11.3
2023-11-19T17:23:08.730Z,11.3
2023-11-19T17:26:09.313Z,11.3
2023-11-19T17:29:08.791Z,11.2
2023-11-19T17:32:08.765Z,11.2
2023-11-19T17:35:08.775Z,11.2
2023-11-19T17:38:26.509Z,11.2
2023-11-19T17:41:08.784Z,11.1
2023-11-19T17:44:08.772Z,11.1
2023-11-19T17:47:08.772Z,11.1
2023-11-19T17:53:08.794Z,11
2023-11-19T17:56:08.766Z,10.9
2023-11-19T17:59:08.785Z,10.9
2023-11-19T18:02:08.765Z,10.9
2023-11-19T18:05:08.769Z,10.9
2023-11-19T18:11:08.749Z,10.8
2023-11-19T18:14:08.778Z,10.7
2023-11-19T18:20:08.861Z,10.7
2023-11-19T18:23:08.752Z,10.7
2023-11-19T18:26:08.784Z,10.6
2023-11-19T18:29:08.801Z,10.6
2023-11-19T18:32:08.819Z,10.6
2023-11-19T18:35:08.783Z,10.6
2023-11-19T18:38:08.772Z,10.5
2023-11-19T18:41:08.830Z,10.5
2023-11-19T18:44:08.789Z,10.5
2023-11-19T18:47:08.776Z,10.5
2023-11-19T18:50:08.837Z,10.5
2023-11-19T18:53:08.852Z,10.5
2023-11-19T18:56:08.749Z,10.4
2023-11-19T18:59:08.745Z,10.4
2023-11-19T19:02:08.744Z,10.4
2023-11-19T19:05:08.892Z,10.4
2023-11-19T19:08:08.782Z,10.4
2023-11-19T19:11:08.773Z,10.4
2023-11-19T19:14:08.821Z,10.4
2023-11-19T19:17:08.760Z,10.5
2023-11-19T19:20:08.771Z,10.5
2023-11-19T19:23:08.835Z,10.6
2023-11-19T19:26:08.789Z,10.6
2023-11-19T19:29:08.756Z,10.6
2023-11-19T19:32:08.828Z,10.6
2023-11-19T19:35:08.802Z,10.6
2023-11-19T19:38:08.751Z,10.6
2023-11-19T19:41:08.784Z,10.7
2023-11-19T19:44:08.765Z,10.7
2023-11-19T19:47:08.731Z,10.8
2023-11-19T19:50:08.748Z,10.8
2023-11-19T19:53:08.807Z,10.8
2023-11-19T19:56:08.912Z,10.8
2023-11-19T19:59:08.755Z,10.9
2023-11-19T20:02:08.792Z,10.9
2023-11-19T20:05:08.750Z,10.9
2023-11-19T20:08:08.749Z,10.9
2023-11-19T20:11:08.785Z,10.9
2023-11-19T20:14:08.735Z,10.9
2023-11-19T20:17:12.117Z,10.9
2023-11-19T20:20:08.706Z,10.9
2023-11-19T20:23:08.726Z,10.9
2023-11-19T20:26:08.728Z,10.9
2023-11-19T20:29:10.001Z,10.9
2023-11-19T20:32:08.705Z,10.9
2023-11-19T20:38:08.707Z,10.9
2023-11-19T20:41:09.403Z,11
2023-11-19T20:44:08.695Z,11
2023-11-19T20:47:08.706Z,11
2023-11-19T20:50:08.788Z,11
2023-11-19T20:53:08.700Z,11
2023-11-19T20:56:08.760Z,11
2023-11-19T20:59:08.697Z,11
2023-11-19T21:02:08.699Z,11
2023-11-19T21:05:08.701Z,11.1
2023-11-19T21:08:08.692Z,11.1
2023-11-19T21:11:08.685Z,11.1
2023-11-19T21:14:08.711Z,11.1
2023-11-19T21:17:08.688Z,11.1
2023-11-19T21:20:08.822Z,11.1
2023-11-19T21:23:08.700Z,11.1
2023-11-19T21:26:08.681Z,11.1
2023-11-19T21:29:08.694Z,11.1
2023-11-19T21:32:08.683Z,11.1
2023-11-19T21:38:08.721Z,11.1
2023-11-19T21:41:08.682Z,11.1
2023-11-19T21:44:08.702Z,11.1
2023-11-19T21:47:08.693Z,11.1
2023-11-19T21:50:08.692Z,11.1
2023-11-19T21:53:08.679Z,11.2
2023-11-19T21:59:08.802Z,11.2
2023-11-19T22:02:08.685Z,11.2
2023-11-19T22:05:08.694Z,11.2
2023-11-19T22:11:08.701Z,11.2
2023-11-19T22:14:08.906Z,11.2
2023-11-19T22:17:08.713Z,11.2
2023-11-19T22:20:24.376Z,11.2
2023-11-19T22:23:08.700Z,11.2
2023-11-19T22:26:08.711Z,11.2
2023-11-19T22:29:08.702Z,11.2
2023-11-19T22:32:08.694Z,11.2
2023-11-19T22:35:08.702Z,11.2
2023-11-19T22:38:08.698Z,11.3
2023-11-19T22:41:10.345Z,11.3
2023-11-19T22:44:08.705Z,11.3
2023-11-19T22:47:08.696Z,11.3
2023-11-19T22:50:08.687Z,11.3
2023-11-19T22:53:08.716Z,11.3
2023-11-19T22:56:08.691Z,11.3
2023-11-19T22:59:08.766Z,11.3
2023-11-19T23:02:08.716Z,11.3
2023-11-19T23:05:08.699Z,11.3
2023-11-19T23:08:08.896Z,11.3
2023-11-19T23:11:08.722Z,11.3
2023-11-19T23:14:08.714Z,11.3
2023-11-19T23:17:08.716Z,11.3
2023-11-19T23:20:08.884Z,11.3
2023-11-19T23:23:08.749Z,11.3
2023-11-19T23:26:08.778Z,11.3
2023-11-19T23:29:12.959Z,11.3
2023-11-19T23:32:08.722Z,11.3
2023-11-19T23:35:08.723Z,11.3
2023-11-19T23:38:08.723Z,11.3
2023-11-19T23:41:08.729Z,11.3
2023-11-19T23:44:08.704Z,11.3
2023-11-19T23:47:08.709Z,11.4
2023-11-19T23:50:08.720Z,11.4
2023-11-19T23:53:08.711Z,11.4
2023-11-19T23:56:08.708Z,11.4
2023-11-19T23:59:08.714Z,11.4
